sensor_id;sensor_type;location;lat;lon;timestamp;temperature;humidity
21805;DHT22;11064;47.102;15.452;2022-11-20T06:01:44;1.60;99.90
21805;DHT22;11064;47.102;15.452;2022-11-20T06:04:10;1.60;99.90
21805;DHT22;11064;47.102;15.452;2022-11-20T06:06:35;1.50;99.90
21805;DHT22;11064;47.102;15.452;2022-11-20T06:09:01;1.50;99.90
21805;DHT22;11064;47.102;15.452;2022-11-20T06:11:27;1.60;99.90
21805;DHT22;11064;47.102;15.452;2022-11-20T06:13:52;1.60;99.90
21805;DHT22;11064;47.102;15.452;2022-11-20T06:16:19;1.70;99.90
21805;DHT22;11064;47.102;15.452;2022-11-20T06:18:46;1.80;99.90
21805;DHT22;11064;47.102;15.452;2022-11-20T06:23:39;1.80;99.90
21805;DHT22;11064;47.102;15.452;2022-11-20T06:26:06;1.80;99.90
21805;DHT22;11064;47.102;15.452;2022-11-20T06:28:33;1.80;99.90
21805;DHT22;11064;47.102;15.452;2022-11-20T06:30:59;1.80;99.90
21805;DHT22;11064;47.102;15.452;2022-11-20T06:33:25;1.90;99.90
21805;DHT22;11064;47.102;15.452;2022-11-20T06:35:51;1.90;99.90
21805;DHT22;11064;47.102;15.452;2022-11-20T06:38:17;1.80;99.90
21805;DHT22;11064;47.102;15.452;2022-11-20T06:40:43;1.80;99.90
21805;DHT22;11064;47.102;15.452;2022-11-20T06:43:10;2.00;99.90
21805;DHT22;11064;47.102;15.452;2022-11-20T06:45:36;2.00;99.90
21805;DHT22;11064;47.102;15.452;2022-11-20T06:48:02;2.10;99.90
21805;DHT22;11064;47.102;15.452;2022-11-20T06:50:28;2.10;99.90
21805;DHT22;11064;47.102;15.452;2022-11-20T06:52:54;2.20;99.90
21805;DHT22;11064;47.102;15.452;2022-11-20T06:55:20;2.30;99.90
21805;DHT22;11064;47.102;15.452;2022-11-20T06:57:46;2.30;99.90
21805;DHT22;11064;47.102;15.452;2022-11-20T07:00:12;2.30;99.90
21805;DHT22;11064;47.102;15.452;2022-11-20T07:02:38;2.40;99.90
21805;DHT22;11064;47.102;15.452;2022-11-20T07:05:03;2.50;99.90
21805;DHT22;11064;47.102;15.452;2022-11-20T07:07:29;2.50;99.90
21805;DHT22;11064;47.102;15.452;2022-11-20T07:09:55;2.50;99.90
21805;DHT22;11064;47.102;15.452;2022-11-20T07:12:21;2.60;99.90
21805;DHT22;11064;47.102;15.452;2022-11-20T07:14:46;2.60;99.90
21805;DHT22;11064;47.102;15.452;2022-11-20T07:17:12;2.60;99.90
21805;DHT22;11064;47.102;15.452;2022-11-20T07:19:38;2.50;99.90
21805;DHT22;11064;47.102;15.452;2022-11-20T07:22:04;2.40;99.90
21805;DHT22;11064;47.102;15.452;2022-11-20T07:24:30;2.40;99.90
21805;DHT22;11064;47.102;15.452;2022-11-20T07:26:55;2.40;99.90
21805;DHT22;11064;47.102;15.452;2022-11-20T07:29:21;2.40;99.90
21805;DHT22;11064;47.102;15.452;2022-11-20T07:31:47;2.20;99.90
21805;DHT22;11064;47.102;15.452;2022-11-20T07:34:12;2.20;99.90
21805;DHT22;11064;47.102;15.452;2022-11-20T07:36:39;2.20;99.90
21805;DHT22;11064;47.102;15.452;2022-11-20T07:39:05;2.20;99.90
21805;DHT22;11064;47.102;15.452;2022-11-20T07:41:30;2.40;99.90
21805;DHT22;11064;47.102;15.452;2022-11-20T07:43:56;2.50;99.90
21805;DHT22;11064;47.102;15.452;2022-11-20T07:46:22;2.60;99.90
21805;DHT22;11064;47.102;15.452;2022-11-20T07:48:48;2.70;99.90
21805;DHT22;11064;47.102;15.452;2022-11-20T07:51:13;2.70;99.90
21805;DHT22;11064;47.102;15.452;2022-11-20T07:53:40;2.70;99.90
21805;DHT22;11064;47.102;15.452;2022-11-20T07:56:06;2.80;99.90
21805;DHT22;11064;47.102;15.452;2022-11-20T07:58:32;2.90;99.90
21805;DHT22;11064;47.102;15.452;2022-11-20T08:01:06;3.00;99.90
21805;DHT22;11064;47.102;15.452;2022-11-20T08:03:33;3.10;99.90
21805;DHT22;11064;47.102;15.452;2022-11-20T08:06:02;3.20;99.90
21805;DHT22;11064;47.102;15.452;2022-11-20T08:08:28;3.40;99.90
21805;DHT22;11064;47.102;15.452;2022-11-20T08:10:56;3.50;99.90
21805;DHT22;11064;47.102;15.452;2022-11-20T08:13:41;3.60;99.90
21805;DHT22;11064;47.102;15.452;2022-11-20T08:16:25;3.70;99.90
21805;DHT22;11064;47.102;15.452;2022-11-20T08:18:51;3.80;99.90
21805;DHT22;11064;47.102;15.452;2022-11-20T08:21:17;3.80;99.90
21805;DHT22;11064;47.102;15.452;2022-11-20T08:23:42;3.90;99.90
21805;DHT22;11064;47.102;15.452;2022-11-20T08:26:08;3.90;99.90
21805;DHT22;11064;47.102;15.452;2022-11-20T08:28:34;4.10;99.90
21805;DHT22;11064;47.102;15.452;2022-11-20T08:31:00;4.00;99.90
21805;DHT22;11064;47.102;15.452;2022-11-20T08:33:26;4.00;99.90
21805;DHT22;11064;47.102;15.452;2022-11-20T08:35:52;3.80;99.90
21805;DHT22;11064;47.102;15.452;2022-11-20T08:38:18;3.80;99.90
21805;DHT22;11064;47.102;15.452;2022-11-20T08:40:44;3.70;99.90
21805;DHT22;11064;47.102;15.452;2022-11-20T08:43:29;3.70;99.90
21805;DHT22;11064;47.102;15.452;2022-11-20T08:45:57;3.70;99.90
21805;DHT22;11064;47.102;15.452;2022-11-20T08:48:23;3.70;99.90
21805;DHT22;11064;47.102;15.452;2022-11-20T08:50:48;3.70;99.90
21805;DHT22;11064;47.102;15.452;2022-11-20T08:53:14;3.50;99.90
21805;DHT22;11064;47.102;15.452;2022-11-20T08:55:40;3.50;99.90
21805;DHT22;11064;47.102;15.452;2022-11-20T08:58:06;3.50;99.90
21805;DHT22;11064;47.102;15.452;2022-11-20T09:00:33;3.60;99.90
21805;DHT22;11064;47.102;15.452;2022-11-20T09:02:59;3.60;99.90
21805;DHT22;11064;47.102;15.452;2022-11-20T09:05:27;3.60;99.90
21805;DHT22;11064;47.102;15.452;2022-11-20T09:07:58;3.60;99.90
21805;DHT22;11064;47.102;15.452;2022-11-20T09:10:28;3.70;99.90
21805;DHT22;11064;47.102;15.452;2022-11-20T09:12:54;3.80;99.90
21805;DHT22;11064;47.102;15.452;2022-11-20T09:15:25;3.90;99.90
21805;DHT22;11064;47.102;15.452;2022-11-20T09:20:17;4.00;99.90
21805;DHT22;11064;47.102;15.452;2022-11-20T09:22:44;4.00;99.90
21805;DHT22;11064;47.102;15.452;2022-11-20T09:25:10;4.00;99.90
21805;DHT22;11064;47.102;15.452;2022-11-20T09:27:35;4.10;99.90
21805;DHT22;11064;47.102;15.452;2022-11-20T09:30:02;4.20;99.90
21805;DHT22;11064;47.102;15.452;2022-11-20T09:32:28;4.30;99.90
21805;DHT22;11064;47.102;15.452;2022-11-20T09:34:53;4.40;99.90
21805;DHT22;11064;47.102;15.452;2022-11-20T09:37:19;4.50;99.90
21805;DHT22;11064;47.102;15.452;2022-11-20T09:39:45;4.50;99.90
21805;DHT22;11064;47.102;15.452;2022-11-20T09:42:17;4.40;99.90
21805;DHT22;11064;47.102;15.452;2022-11-20T09:55:24;4.40;99.90
21805;DHT22;11064;47.102;15.452;2022-11-20T09:57:52;4.50;99.90
21805;DHT22;11064;47.102;15.452;2022-11-20T10:00:18;4.70;99.90
21805;DHT22;11064;47.102;15.452;2022-11-20T10:03:05;4.70;99.90
21805;DHT22;11064;47.102;15.452;2022-11-20T10:05:47;4.80;99.90
21805;DHT22;11064;47.102;15.452;2022-11-20T10:08:39;4.90;99.90
21805;DHT22;11064;47.102;15.452;2022-11-20T10:11:18;5.10;99.90
21805;DHT22;11064;47.102;15.452;2022-11-20T10:22:46;5.70;99.90
21805;DHT22;11064;47.102;15.452;2022-11-20T10:28:16;5.90;99.90
21805;DHT22;11064;47.102;15.452;2022-11-20T10:30:44;6.00;99.90
21805;DHT22;11064;47.102;15.452;2022-11-20T10:33:18;6.10;99.90
21805;DHT22;11064;47.102;15.452;2022-11-20T10:36:15;6.20;99.90
21805;DHT22;11064;47.102;15.452;2022-11-20T10:39:03;6.40;99.90
21805;DHT22;11064;47.102;15.452;2022-11-20T10:41:37;6.70;99.90
21805;DHT22;11064;47.102;15.452;2022-11-20T10:44:17;7.00;99.90
21805;DHT22;11064;47.102;15.452;2022-11-20T10:47:01;7.20;99.90
21805;DHT22;11064;47.102;15.452;2022-11-20T10:49:27;7.50;99.90
21805;DHT22;11064;47.102;15.452;2022-11-20T10:52:30;7.80;99.90
21805;DHT22;11064;47.102;15.452;2022-11-20T10:58:01;8.20;99.90
21805;DHT22;11064;47.102;15.452;2022-11-20T11:00:32;8.40;99.90
21805;DHT22;11064;47.102;15.452;2022-11-20T11:02:58;8.60;99.90
21805;DHT22;11064;47.102;15.452;2022-11-20T11:08:36;8.90;99.90
21805;DHT22;11064;47.102;15.452;2022-11-20T11:13:48;9.10;99.90
21805;DHT22;11064;47.102;15.452;2022-11-20T11:16:23;9.00;99.90
21805;DHT22;11064;47.102;15.452;2022-11-20T11:18:51;9.10;99.90
21805;DHT22;11064;47.102;15.452;2022-11-20T11:21:26;8.90;99.90
21805;DHT22;11064;47.102;15.452;2022-11-20T11:24:03;8.90;99.90
21805;DHT22;11064;47.102;15.452;2022-11-20T11:26:30;9.10;99.90
21805;DHT22;11064;47.102;15.452;2022-11-20T11:28:56;9.10;99.90
21805;DHT22;11064;47.102;15.452;2022-11-20T11:31:24;8.90;99.90
21805;DHT22;11064;47.102;15.452;2022-11-20T11:33:50;9.00;99.90
21805;DHT22;11064;47.102;15.452;2022-11-20T11:36:22;9.00;99.90
21805;DHT22;11064;47.102;15.452;2022-11-20T11:38:52;9.00;99.90
21805;DHT22;11064;47.102;15.452;2022-11-20T11:41:25;8.80;99.90
21805;DHT22;11064;47.102;15.452;2022-11-20T11:44:03;8.50;99.90
21805;DHT22;11064;47.102;15.452;2022-11-20T11:46:58;8.30;99.90
21805;DHT22;11064;47.102;15.452;2022-11-20T11:49:23;8.20;99.90
21805;DHT22;11064;47.102;15.452;2022-11-20T11:54:53;7.70;99.90
21805;DHT22;11064;47.102;15.452;2022-11-20T12:00:14;7.10;99.90
21805;DHT22;11064;47.102;15.452;2022-11-20T12:07:47;6.30;99.90
21805;DHT22;11064;47.102;15.452;2022-11-20T12:10:19;6.20;99.90
21805;DHT22;11064;47.102;15.452;2022-11-20T12:13:00;6.10;99.90
21805;DHT22;11064;47.102;15.452;2022-11-20T12:15:33;6.00;99.90
21805;DHT22;11064;47.102;15.452;2022-11-20T12:18:00;5.90;99.90
21805;DHT22;11064;47.102;15.452;2022-11-20T12:20:31;5.90;99.90
21805;DHT22;11064;47.102;15.452;2022-11-20T12:23:31;6.00;99.90
21805;DHT22;11064;47.102;15.452;2022-11-20T12:26:10;6.10;99.90
21805;DHT22;11064;47.102;15.452;2022-11-20T12:32:04;6.30;99.90
21805;DHT22;11064;47.102;15.452;2022-11-20T12:37:53;6.30;99.90
21805;DHT22;11064;47.102;15.452;2022-11-20T12:43:26;6.20;99.90
21805;DHT22;11064;47.102;15.452;2022-11-20T12:46:36;6.20;99.90
21805;DHT22;11064;47.102;15.452;2022-11-20T12:52:20;6.10;99.90
21805;DHT22;11064;47.102;15.452;2022-11-20T13:00:11;5.90;99.90
21805;DHT22;11064;47.102;15.452;2022-11-20T13:03:10;5.90;99.90
21805;DHT22;11064;47.102;15.452;2022-11-20T13:08:12;6.10;99.90
21805;DHT22;11064;47.102;15.452;2022-11-20T13:10:49;6.20;99.90
21805;DHT22;11064;47.102;15.452;2022-11-20T13:16:07;6.50;99.90
21805;DHT22;11064;47.102;15.452;2022-11-20T13:18:38;6.70;99.90
21805;DHT22;11064;47.102;15.452;2022-11-20T13:21:22;6.90;99.90
21805;DHT22;11064;47.102;15.452;2022-11-20T13:24:07;7.20;99.90
21805;DHT22;11064;47.102;15.452;2022-11-20T13:26:33;7.20;99.90
21805;DHT22;11064;47.102;15.452;2022-11-20T13:29:12;7.30;99.90
21805;DHT22;11064;47.102;15.452;2022-11-20T13:31:44;7.50;99.90
21805;DHT22;11064;47.102;15.452;2022-11-20T13:34:14;7.70;99.90
21805;DHT22;11064;47.102;15.452;2022-11-20T13:36:50;7.70;99.90
21805;DHT22;11064;47.102;15.452;2022-11-20T13:39:29;7.90;99.90
21805;DHT22;11064;47.102;15.452;2022-11-20T13:41:57;8.00;99.90
21805;DHT22;11064;47.102;15.452;2022-11-20T13:44:46;8.10;99.90
21805;DHT22;11064;47.102;15.452;2022-11-20T13:47:29;8.20;99.90
21805;DHT22;11064;47.102;15.452;2022-11-20T13:49:57;8.20;99.90
21805;DHT22;11064;47.102;15.452;2022-11-20T13:52:40;8.10;99.90
21805;DHT22;11064;47.102;15.452;2022-11-20T14:00:19;7.50;99.90
21805;DHT22;11064;47.102;15.452;2022-11-20T14:05:22;7.40;99.90
21805;DHT22;11064;47.102;15.452;2022-11-20T14:07:50;7.50;99.90
21805;DHT22;11064;47.102;15.452;2022-11-20T14:10:23;7.40;99.90
21805;DHT22;11064;47.102;15.452;2022-11-20T14:12:49;7.30;99.90
21805;DHT22;11064;47.102;15.452;2022-11-20T14:15:28;6.90;99.90
21805;DHT22;11064;47.102;15.452;2022-11-20T14:17:55;6.60;99.90
21805;DHT22;11064;47.102;15.452;2022-11-20T14:20:25;6.20;99.90
21805;DHT22;11064;47.102;15.452;2022-11-20T14:22:52;6.00;99.90
21805;DHT22;11064;47.102;15.452;2022-11-20T14:27:50;5.60;99.90
21805;DHT22;11064;47.102;15.452;2022-11-20T14:30:23;5.40;99.90
21805;DHT22;11064;47.102;15.452;2022-11-20T14:32:49;5.30;99.90
21805;DHT22;11064;47.102;15.452;2022-11-20T14:35:40;5.10;99.90
21805;DHT22;11064;47.102;15.452;2022-11-20T14:38:12;5.00;99.90
21805;DHT22;11064;47.102;15.452;2022-11-20T14:40:39;4.90;99.90
21805;DHT22;11064;47.102;15.452;2022-11-20T14:45:59;4.60;99.90
21805;DHT22;11064;47.102;15.452;2022-11-20T14:48:48;4.50;99.90
21805;DHT22;11064;47.102;15.452;2022-11-20T14:51:33;4.40;99.90
21805;DHT22;11064;47.102;15.452;2022-11-20T14:54:10;4.30;99.90
21805;DHT22;11064;47.102;15.452;2022-11-20T14:56:36;4.20;99.90
21805;DHT22;11064;47.102;15.452;2022-11-20T14:59:02;4.10;99.90
21805;DHT22;11064;47.102;15.452;2022-11-20T15:01:29;4.00;99.90
21805;DHT22;11064;47.102;15.452;2022-11-20T15:04:05;3.90;99.90
21805;DHT22;11064;47.102;15.452;2022-11-20T15:06:31;3.90;99.90
21805;DHT22;11064;47.102;15.452;2022-11-20T15:08:57;3.90;99.90
21805;DHT22;11064;47.102;15.452;2022-11-20T15:11:29;3.80;99.90
21805;DHT22;11064;47.102;15.452;2022-11-20T15:13:56;3.70;99.90
21805;DHT22;11064;47.102;15.452;2022-11-20T15:16:23;3.50;99.90
21805;DHT22;11064;47.102;15.452;2022-11-20T15:18:50;3.50;99.90
21805;DHT22;11064;47.102;15.452;2022-11-20T15:21:19;3.40;99.90
21805;DHT22;11064;47.102;15.452;2022-11-20T15:23:46;3.30;99.90
21805;DHT22;11064;47.102;15.452;2022-11-20T15:26:23;3.30;99.90
21805;DHT22;11064;47.102;15.452;2022-11-20T15:28:50;3.20;99.90
21805;DHT22;11064;47.102;15.452;2022-11-20T15:31:19;3.10;99.90
21805;DHT22;11064;47.102;15.452;2022-11-20T15:33:45;3.10;99.90
21805;DHT22;11064;47.102;15.452;2022-11-20T15:36:11;3.00;99.90
21805;DHT22;11064;47.102;15.452;2022-11-20T15:38:37;3.00;99.90
21805;DHT22;11064;47.102;15.452;2022-11-20T15:41:02;3.00;99.90
21805;DHT22;11064;47.102;15.452;2022-11-20T15:43:28;2.90;99.90
21805;DHT22;11064;47.102;15.452;2022-11-20T15:45:58;2.80;99.90
21805;DHT22;11064;47.102;15.452;2022-11-20T15:49:00;2.80;99.90
21805;DHT22;11064;47.102;15.452;2022-11-20T15:51:31;2.70;99.90
21805;DHT22;11064;47.102;15.452;2022-11-20T15:53:58;2.70;99.90
21805;DHT22;11064;47.102;15.452;2022-11-20T15:56:24;2.60;99.90
21805;DHT22;11064;47.102;15.452;2022-11-20T15:58:50;2.50;99.90
21805;DHT22;11064;47.102;15.452;2022-11-20T16:01:17;2.50;99.90
21805;DHT22;11064;47.102;15.452;2022-11-20T16:03:44;2.40;99.90
21805;DHT22;11064;47.102;15.452;2022-11-20T16:06:10;2.50;99.90
21805;DHT22;11064;47.102;15.452;2022-11-20T16:08:36;2.40;99.90
21805;DHT22;11064;47.102;15.452;2022-11-20T16:11:02;2.40;99.90
21805;DHT22;11064;47.102;15.452;2022-11-20T16:13:30;2.50;99.90
21805;DHT22;11064;47.102;15.452;2022-11-20T16:16:28;2.70;99.90
21805;DHT22;11064;47.102;15.452;2022-11-20T16:18:56;2.90;99.90
21805;DHT22;11064;47.102;15.452;2022-11-20T16:21:22;3.10;99.90
21805;DHT22;11064;47.102;15.452;2022-11-20T16:24:02;3.20;99.90
21805;DHT22;11064;47.102;15.452;2022-11-20T16:26:28;3.30;99.90
21805;DHT22;11064;47.102;15.452;2022-11-20T16:28:55;3.40;99.90
21805;DHT22;11064;47.102;15.452;2022-11-20T16:31:22;3.50;99.90
21805;DHT22;11064;47.102;15.452;2022-11-20T16:33:55;3.60;99.90
21805;DHT22;11064;47.102;15.452;2022-11-20T16:36:23;3.70;99.90
21805;DHT22;11064;47.102;15.452;2022-11-20T16:38:54;3.80;99.90
21805;DHT22;11064;47.102;15.452;2022-11-20T16:41:20;3.80;99.90
21805;DHT22;11064;47.102;15.452;2022-11-20T16:43:49;3.80;99.90
21805;DHT22;11064;47.102;15.452;2022-11-20T16:46:18;3.90;99.90
21805;DHT22;11064;47.102;15.452;2022-11-20T16:48:45;4.00;99.90
21805;DHT22;11064;47.102;15.452;2022-11-20T16:51:11;4.00;99.90
21805;DHT22;11064;47.102;15.452;2022-11-20T16:53:38;3.90;99.90
21805;DHT22;11064;47.102;15.452;2022-11-20T16:56:15;3.90;99.90
21805;DHT22;11064;47.102;15.452;2022-11-20T16:58:42;3.90;99.90
21805;DHT22;11064;47.102;15.452;2022-11-20T17:01:10;4.10;99.90
21805;DHT22;11064;47.102;15.452;2022-11-20T17:03:40;4.10;99.90
21805;DHT22;11064;47.102;15.452;2022-11-20T17:06:20;4.10;99.90
21805;DHT22;11064;47.102;15.452;2022-11-20T17:08:46;4.20;99.90
21805;DHT22;11064;47.102;15.452;2022-11-20T17:11:17;4.30;99.90
21805;DHT22;11064;47.102;15.452;2022-11-20T17:13:43;4.20;99.90
21805;DHT22;11064;47.102;15.452;2022-11-20T17:16:15;4.20;99.90
21805;DHT22;11064;47.102;15.452;2022-11-20T17:18:42;4.20;99.90
21805;DHT22;11064;47.102;15.452;2022-11-20T17:21:09;4.00;99.90
21805;DHT22;11064;47.102;15.452;2022-11-20T17:23:37;4.10;99.90
21805;DHT22;11064;47.102;15.452;2022-11-20T17:26:11;4.00;99.90
21805;DHT22;11064;47.102;15.452;2022-11-20T17:28:46;3.90;99.90
21805;DHT22;11064;47.102;15.452;2022-11-20T17:31:14;4.00;99.90
21805;DHT22;11064;47.102;15.452;2022-11-20T17:33:42;4.00;99.90
21805;DHT22;11064;47.102;15.452;2022-11-20T17:36:09;4.00;99.90
21805;DHT22;11064;47.102;15.452;2022-11-20T17:38:36;4.10;99.90
21805;DHT22;11064;47.102;15.452;2022-11-20T17:41:16;4.10;99.90
21805;DHT22;11064;47.102;15.452;2022-11-20T17:43:43;4.10;99.90
21805;DHT22;11064;47.102;15.452;2022-11-20T17:46:11;4.20;99.90
21805;DHT22;11064;47.102;15.452;2022-11-20T17:48:37;4.20;99.90
21805;DHT22;11064;47.102;15.452;2022-11-20T17:51:08;4.10;99.90
21805;DHT22;11064;47.102;15.452;2022-11-20T17:53:36;4.10;99.90
21805;DHT22;11064;47.102;15.452;2022-11-20T17:56:02;4.00;99.90
21805;DHT22;11064;47.102;15.452;2022-11-20T17:58:47;4.00;99.90
21805;DHT22;11064;47.102;15.452;2022-11-20T18:01:13;4.00;99.90
21805;DHT22;11064;47.102;15.452;2022-11-20T18:03:39;4.00;99.90
21805;DHT22;11064;47.102;15.452;2022-11-20T18:06:09;4.10;99.90
21805;DHT22;11064;47.102;15.452;2022-11-20T18:08:36;4.00;99.90
21805;DHT22;11064;47.102;15.452;2022-11-20T18:11:25;4.00;99.90
21805;DHT22;11064;47.102;15.452;2022-11-20T18:13:53;4.00;99.90
21805;DHT22;11064;47.102;15.452;2022-11-20T18:16:47;4.00;99.90
21805;DHT22;11064;47.102;15.452;2022-11-20T18:19:16;3.90;99.90
21805;DHT22;11064;47.102;15.452;2022-11-20T18:21:42;3.80;99.90
21805;DHT22;11064;47.102;15.452;2022-11-20T18:24:08;3.80;99.90
21805;DHT22;11064;47.102;15.452;2022-11-20T18:26:35;3.80;99.90
21805;DHT22;11064;47.102;15.452;2022-11-20T18:29:01;3.80;99.90
21805;DHT22;11064;47.102;15.452;2022-11-20T18:31:27;3.70;99.90
21805;DHT22;11064;47.102;15.452;2022-11-20T18:33:53;3.70;99.90
21805;DHT22;11064;47.102;15.452;2022-11-20T18:36:22;3.70;99.90
21805;DHT22;11064;47.102;15.452;2022-11-20T18:38:50;3.70;99.90
21805;DHT22;11064;47.102;15.452;2022-11-20T18:41:17;3.80;99.90
21805;DHT22;11064;47.102;15.452;2022-11-20T18:44:03;3.70;99.90
21805;DHT22;11064;47.102;15.452;2022-11-20T18:46:48;3.70;99.90
21805;DHT22;11064;47.102;15.452;2022-11-20T18:49:14;3.70;99.90
21805;DHT22;11064;47.102;15.452;2022-11-20T18:51:41;3.80;99.90
21805;DHT22;11064;47.102;15.452;2022-11-20T18:54:09;3.80;99.90
21805;DHT22;11064;47.102;15.452;2022-11-20T18:56:35;3.80;99.90
21805;DHT22;11064;47.102;15.452;2022-11-20T18:59:03;3.80;99.90
21805;DHT22;11064;47.102;15.452;2022-11-20T19:01:29;3.90;99.90
21805;DHT22;11064;47.102;15.452;2022-11-20T19:03:55;3.80;99.90
21805;DHT22;11064;47.102;15.452;2022-11-20T19:06:21;3.80;99.90
21805;DHT22;11064;47.102;15.452;2022-11-20T19:08:47;3.80;99.90
21805;DHT22;11064;47.102;15.452;2022-11-20T19:11:13;3.80;99.90
21805;DHT22;11064;47.102;15.452;2022-11-20T19:13:40;3.80;99.90
21805;DHT22;11064;47.102;15.452;2022-11-20T19:18:32;3.90;99.90
21805;DHT22;11064;47.102;15.452;2022-11-20T19:21:10;3.80;99.90
21805;DHT22;11064;47.102;15.452;2022-11-20T19:23:36;3.80;99.90
21805;DHT22;11064;47.102;15.452;2022-11-20T19:26:02;3.90;99.90
21805;DHT22;11064;47.102;15.452;2022-11-20T19:28:33;3.80;99.90
21805;DHT22;11064;47.102;15.452;2022-11-20T19:31:07;3.80;99.90
21805;DHT22;11064;47.102;15.452;2022-11-20T19:33:33;3.80;99.90
21805;DHT22;11064;47.102;15.452;2022-11-20T19:36:17;3.70;99.90
21805;DHT22;11064;47.102;15.452;2022-11-20T19:38:46;3.70;99.90
21805;DHT22;11064;47.102;15.452;2022-11-20T19:41:14;3.70;99.90
21805;DHT22;11064;47.102;15.452;2022-11-20T19:43:40;3.70;99.90
21805;DHT22;11064;47.102;15.452;2022-11-20T19:46:06;3.80;99.90
21805;DHT22;11064;47.102;15.452;2022-11-20T19:48:33;3.80;99.90
21805;DHT22;11064;47.102;15.452;2022-11-20T19:51:18;3.90;99.90
21805;DHT22;11064;47.102;15.452;2022-11-20T19:53:44;3.90;99.90
21805;DHT22;11064;47.102;15.452;2022-11-20T19:56:10;3.80;99.90
21805;DHT22;11064;47.102;15.452;2022-11-20T19:58:37;3.70;99.90
21805;DHT22;11064;47.102;15.452;2022-11-20T20:01:12;3.70;99.90
21805;DHT22;11064;47.102;15.452;2022-11-20T20:03:39;3.60;99.90
21805;DHT22;11064;47.102;15.452;2022-11-20T20:06:08;3.50;99.90
21805;DHT22;11064;47.102;15.452;2022-11-20T20:08:35;3.30;99.90
21805;DHT22;11064;47.102;15.452;2022-11-20T20:11:16;3.00;99.90
21805;DHT22;11064;47.102;15.452;2022-11-20T20:13:42;2.80;99.90
21805;DHT22;11064;47.102;15.452;2022-11-20T20:16:19;2.60;99.90
21805;DHT22;11064;47.102;15.452;2022-11-20T20:18:45;2.40;99.90
21805;DHT22;11064;47.102;15.452;2022-11-20T20:21:13;2.20;99.90
21805;DHT22;11064;47.102;15.452;2022-11-20T20:23:39;2.10;99.90
21805;DHT22;11064;47.102;15.452;2022-11-20T20:26:07;2.10;99.90
21805;DHT22;11064;47.102;15.452;2022-11-20T20:28:34;2.20;99.90
21805;DHT22;11064;47.102;15.452;2022-11-20T20:31:12;2.30;99.90
21805;DHT22;11064;47.102;15.452;2022-11-20T20:33:40;2.40;99.90
21805;DHT22;11064;47.102;15.452;2022-11-20T20:36:07;2.40;99.90
21805;DHT22;11064;47.102;15.452;2022-11-20T20:38:34;2.40;99.90
21805;DHT22;11064;47.102;15.452;2022-11-20T20:41:00;2.40;99.90
21805;DHT22;11064;47.102;15.452;2022-11-20T20:43:26;2.50;99.90
21805;DHT22;11064;47.102;15.452;2022-11-20T20:45:52;2.50;99.90
21805;DHT22;11064;47.102;15.452;2022-11-20T20:48:21;2.60;99.90
21805;DHT22;11064;47.102;15.452;2022-11-20T20:50:59;2.50;99.90
21805;DHT22;11064;47.102;15.452;2022-11-20T20:53:29;2.50;99.90
21805;DHT22;11064;47.102;15.452;2022-11-20T20:55:57;2.50;99.90
21805;DHT22;11064;47.102;15.452;2022-11-20T20:58:23;2.40;99.90
21805;DHT22;11064;47.102;15.452;2022-11-20T21:00:49;2.40;99.90
21805;DHT22;11064;47.102;15.452;2022-11-20T21:03:15;2.30;99.90
21805;DHT22;11064;47.102;15.452;2022-11-20T21:05:40;2.20;99.90
21805;DHT22;11064;47.102;15.452;2022-11-20T21:08:06;2.20;99.90
21805;DHT22;11064;47.102;15.452;2022-11-20T21:10:47;2.10;99.90
21805;DHT22;11064;47.102;15.452;2022-11-20T21:13:13;2.10;99.90
21805;DHT22;11064;47.102;15.452;2022-11-20T21:15:39;2.00;99.90
21805;DHT22;11064;47.102;15.452;2022-11-20T21:18:05;2.00;99.90
21805;DHT22;11064;47.102;15.452;2022-11-20T21:20:30;2.00;99.90
21805;DHT22;11064;47.102;15.452;2022-11-20T21:23:14;2.10;99.90
21805;DHT22;11064;47.102;15.452;2022-11-20T21:25:40;2.10;99.90
21805;DHT22;11064;47.102;15.452;2022-11-20T21:28:06;2.10;99.90
21805;DHT22;11064;47.102;15.452;2022-11-20T21:30:33;2.10;99.90
21805;DHT22;11064;47.102;15.452;2022-11-20T21:32:59;2.20;99.90
21805;DHT22;11064;47.102;15.452;2022-11-20T21:35:25;2.20;99.90
21805;DHT22;11064;47.102;15.452;2022-11-20T21:37:52;2.30;99.90
21805;DHT22;11064;47.102;15.452;2022-11-20T21:40:17;2.40;99.90
21805;DHT22;11064;47.102;15.452;2022-11-20T21:42:43;2.50;99.90
21805;DHT22;11064;47.102;15.452;2022-11-20T21:45:09;2.50;99.90
21805;DHT22;11064;47.102;15.452;2022-11-20T21:47:34;2.50;99.90
21805;DHT22;11064;47.102;15.452;2022-11-20T21:50:00;2.40;99.90
21805;DHT22;11064;47.102;15.452;2022-11-20T21:52:26;2.30;99.90
21805;DHT22;11064;47.102;15.452;2022-11-20T21:54:51;2.20;99.90
21805;DHT22;11064;47.102;15.452;2022-11-20T21:57:17;2.20;99.90
21805;DHT22;11064;47.102;15.452;2022-11-20T21:59:43;2.20;99.90
21805;DHT22;11064;47.102;15.452;2022-11-20T22:02:11;2.20;99.90
21805;DHT22;11064;47.102;15.452;2022-11-20T22:04:37;2.10;99.90
21805;DHT22;11064;47.102;15.452;2022-11-20T22:07:06;2.20;99.90
21805;DHT22;11064;47.102;15.452;2022-11-20T22:09:32;2.20;99.90
21805;DHT22;11064;47.102;15.452;2022-11-20T22:11:57;2.20;99.90
21805;DHT22;11064;47.102;15.452;2022-11-20T22:14:23;2.20;99.90
21805;DHT22;11064;47.102;15.452;2022-11-20T22:16:50;2.30;99.90
21805;DHT22;11064;47.102;15.452;2022-11-20T22:19:18;2.20;99.90
21805;DHT22;11064;47.102;15.452;2022-11-20T22:21:44;2.10;99.90
21805;DHT22;11064;47.102;15.452;2022-11-20T22:24:12;2.00;99.90
21805;DHT22;11064;47.102;15.452;2022-11-20T22:26:38;1.90;99.90
21805;DHT22;11064;47.102;15.452;2022-11-20T22:29:04;1.90;99.90
21805;DHT22;11064;47.102;15.452;2022-11-20T22:31:31;1.80;99.90
21805;DHT22;11064;47.102;15.452;2022-11-20T22:33:58;1.90;99.90
21805;DHT22;11064;47.102;15.452;2022-11-20T22:36:26;1.90;99.90
21805;DHT22;11064;47.102;15.452;2022-11-20T22:38:54;1.90;99.90
21805;DHT22;11064;47.102;15.452;2022-11-20T22:41:22;1.90;99.90
21805;DHT22;11064;47.102;15.452;2022-11-20T22:43:57;1.80;99.90
21805;DHT22;11064;47.102;15.452;2022-11-20T22:46:24;1.90;99.90
21805;DHT22;11064;47.102;15.452;2022-11-20T22:48:51;1.90;99.90
21805;DHT22;11064;47.102;15.452;2022-11-20T22:51:19;1.80;99.90
21805;DHT22;11064;47.102;15.452;2022-11-20T22:53:46;1.80;99.90
21805;DHT22;11064;47.102;15.452;2022-11-20T22:56:13;1.80;99.90
21805;DHT22;11064;47.102;15.452;2022-11-20T22:58:41;1.80;99.90
